sensor_id;sensor_type;location;lat;lon;timestamp;temperature;humidity
10294;DHT22;5192;50.328;7.610;2022-10-28T00:00:16;14.50;99.90
10294;DHT22;5192;50.328;7.610;2022-10-28T00:02:49;14.40;99.90
10294;DHT22;5192;50.328;7.610;2022-10-28T00:05:16;14.50;99.90
10294;DHT22;5192;50.328;7.610;2022-10-28T00:07:47;14.50;99.90
10294;DHT22;5192;50.328;7.610;2022-10-28T00:10:14;14.50;99.90
10294;DHT22;5192;50.328;7.610;2022-10-28T00:12:47;14.50;99.90
10294;DHT22;5192;50.328;7.610;2022-10-28T00:15:15;14.50;99.90
10294;DHT22;5192;50.328;7.610;2022-10-28T00:17:40;14.40;99.90
10294;DHT22;5192;50.328;7.610;2022-10-28T00:20:08;14.40;99.90
10294;DHT22;5192;50.328;7.610;2022-10-28T00:22:34;14.40;99.90
10294;DHT22;5192;50.328;7.610;2022-10-28T00:25:06;14.30;99.90
10294;DHT22;5192;50.328;7.610;2022-10-28T00:27:32;14.30;99.90
10294;DHT22;5192;50.328;7.610;2022-10-28T00:29:59;14.30;99.90
10294;DHT22;5192;50.328;7.610;2022-10-28T00:32:28;14.30;99.90
10294;DHT22;5192;50.328;7.610;2022-10-28T00:34:56;14.20;99.90
10294;DHT22;5192;50.328;7.610;2022-10-28T00:37:30;14.20;99.90
10294;DHT22;5192;50.328;7.610;2022-10-28T00:39:58;14.20;99.90
10294;DHT22;5192;50.328;7.610;2022-10-28T00:42:30;14.20;99.90
10294;DHT22;5192;50.328;7.610;2022-10-28T00:45:01;14.20;99.90
10294;DHT22;5192;50.328;7.610;2022-10-28T00:50:48;14.20;99.90
10294;DHT22;5192;50.328;7.610;2022-10-28T00:53:36;14.20;99.90
10294;DHT22;5192;50.328;7.610;2022-10-28T00:56:07;14.20;99.90
10294;DHT22;5192;50.328;7.610;2022-10-28T00:58:36;14.30;99.90
10294;DHT22;5192;50.328;7.610;2022-10-28T01:01:09;14.30;99.90
10294;DHT22;5192;50.328;7.610;2022-10-28T01:03:36;14.30;99.90
10294;DHT22;5192;50.328;7.610;2022-10-28T01:06:10;14.30;99.90
10294;DHT22;5192;50.328;7.610;2022-10-28T01:08:36;14.30;99.90
10294;DHT22;5192;50.328;7.610;2022-10-28T01:26:13;14.40;99.90
10294;DHT22;5192;50.328;7.610;2022-10-28T01:35:29;14.50;99.90
10294;DHT22;5192;50.328;7.610;2022-10-28T01:44:15;14.50;99.90
10294;DHT22;5192;50.328;7.610;2022-10-28T01:47:00;14.40;99.90
10294;DHT22;5192;50.328;7.610;2022-10-28T01:52:49;14.40;99.90
10294;DHT22;5192;50.328;7.610;2022-10-28T01:55:41;14.40;99.90
10294;DHT22;5192;50.328;7.610;2022-10-28T01:58:17;14.30;99.90
10294;DHT22;5192;50.328;7.610;2022-10-28T02:00:57;14.30;99.90
10294;DHT22;5192;50.328;7.610;2022-10-28T02:03:34;14.30;99.90
10294;DHT22;5192;50.328;7.610;2022-10-28T02:06:09;14.40;99.90
10294;DHT22;5192;50.328;7.610;2022-10-28T02:24:31;14.20;99.90
10294;DHT22;5192;50.328;7.610;2022-10-28T02:31:00;14.20;99.90
10294;DHT22;5192;50.328;7.610;2022-10-28T02:33:18;14.20;99.90
10294;DHT22;5192;50.328;7.610;2022-10-28T02:36:00;14.20;99.90
10294;DHT22;5192;50.328;7.610;2022-10-28T02:39:07;14.30;99.90
10294;DHT22;5192;50.328;7.610;2022-10-28T02:42:38;14.30;99.90
10294;DHT22;5192;50.328;7.610;2022-10-28T02:45:18;14.20;99.90
10294;DHT22;5192;50.328;7.610;2022-10-28T02:48:02;14.30;99.90
10294;DHT22;5192;50.328;7.610;2022-10-28T02:50:38;14.30;99.90
10294;DHT22;5192;50.328;7.610;2022-10-28T02:53:18;14.30;99.90
10294;DHT22;5192;50.328;7.610;2022-10-28T02:55:53;14.30;99.90
10294;DHT22;5192;50.328;7.610;2022-10-28T02:58:21;14.30;99.90
10294;DHT22;5192;50.328;7.610;2022-10-28T03:00:49;14.30;99.90
10294;DHT22;5192;50.328;7.610;2022-10-28T03:03:16;14.30;99.90
10294;DHT22;5192;50.328;7.610;2022-10-28T03:05:48;14.30;99.90
10294;DHT22;5192;50.328;7.610;2022-10-28T03:08:13;14.30;99.90
10294;DHT22;5192;50.328;7.610;2022-10-28T03:10:40;14.30;99.90
10294;DHT22;5192;50.328;7.610;2022-10-28T03:13:10;14.30;99.90
10294;DHT22;5192;50.328;7.610;2022-10-28T03:15:37;14.30;99.90
10294;DHT22;5192;50.328;7.610;2022-10-28T03:18:09;14.30;99.90
10294;DHT22;5192;50.328;7.610;2022-10-28T03:20:37;14.30;99.90
10294;DHT22;5192;50.328;7.610;2022-10-28T03:23:11;14.30;99.90
10294;DHT22;5192;50.328;7.610;2022-10-28T03:25:37;14.20;99.90
10294;DHT22;5192;50.328;7.610;2022-10-28T03:28:08;14.20;99.90
10294;DHT22;5192;50.328;7.610;2022-10-28T03:30:36;14.20;99.90
10294;DHT22;5192;50.328;7.610;2022-10-28T03:33:08;14.20;99.90
10294;DHT22;5192;50.328;7.610;2022-10-28T03:35:35;14.20;99.90
10294;DHT22;5192;50.328;7.610;2022-10-28T03:38:07;14.20;99.90
10294;DHT22;5192;50.328;7.610;2022-10-28T03:40:35;14.30;99.90
10294;DHT22;5192;50.328;7.610;2022-10-28T03:43:09;14.40;99.90
10294;DHT22;5192;50.328;7.610;2022-10-28T03:45:37;14.60;99.90
10294;DHT22;5192;50.328;7.610;2022-10-28T03:48:08;14.60;99.90
10294;DHT22;5192;50.328;7.610;2022-10-28T03:50:34;14.60;99.90
10294;DHT22;5192;50.328;7.610;2022-10-28T03:53:01;14.60;99.90
10294;DHT22;5192;50.328;7.610;2022-10-28T03:55:29;14.60;99.90
10294;DHT22;5192;50.328;7.610;2022-10-28T03:57:59;14.60;99.90
10294;DHT22;5192;50.328;7.610;2022-10-28T04:00:29;14.50;99.90
10294;DHT22;5192;50.328;7.610;2022-10-28T04:02:56;14.40;99.90
10294;DHT22;5192;50.328;7.610;2022-10-28T04:05:23;14.30;99.90
10294;DHT22;5192;50.328;7.610;2022-10-28T04:07:53;14.30;99.90
10294;DHT22;5192;50.328;7.610;2022-10-28T04:10:20;14.20;99.90
10294;DHT22;5192;50.328;7.610;2022-10-28T04:12:47;14.20;99.90
10294;DHT22;5192;50.328;7.610;2022-10-28T04:15:17;14.10;99.90
10294;DHT22;5192;50.328;7.610;2022-10-28T04:17:51;14.10;99.90
10294;DHT22;5192;50.328;7.610;2022-10-28T04:20:19;14.10;99.90
10294;DHT22;5192;50.328;7.610;2022-10-28T04:22:49;14.00;99.90
10294;DHT22;5192;50.328;7.610;2022-10-28T04:25:17;13.90;99.90
10294;DHT22;5192;50.328;7.610;2022-10-28T04:27:53;13.90;99.90
10294;DHT22;5192;50.328;7.610;2022-10-28T04:30:20;13.90;99.90
10294;DHT22;5192;50.328;7.610;2022-10-28T04:32:48;14.10;99.90
10294;DHT22;5192;50.328;7.610;2022-10-28T04:35:15;14.40;99.90
10294;DHT22;5192;50.328;7.610;2022-10-28T04:37:44;14.40;99.90
10294;DHT22;5192;50.328;7.610;2022-10-28T04:40:15;14.50;99.90
10294;DHT22;5192;50.328;7.610;2022-10-28T04:42:56;14.60;99.90
10294;DHT22;5192;50.328;7.610;2022-10-28T04:45:36;14.90;99.90
10294;DHT22;5192;50.328;7.610;2022-10-28T04:48:31;15.20;99.90
10294;DHT22;5192;50.328;7.610;2022-10-28T04:50:59;15.70;99.90
10294;DHT22;5192;50.328;7.610;2022-10-28T04:53:29;16.20;85.90
10294;DHT22;5192;50.328;7.610;2022-10-28T04:55:57;16.40;84.00
10294;DHT22;5192;50.328;7.610;2022-10-28T04:58:47;16.80;68.60
10294;DHT22;5192;50.328;7.610;2022-10-28T05:01:16;16.80;66.80
10294;DHT22;5192;50.328;7.610;2022-10-28T05:04:07;16.90;65.40
10294;DHT22;5192;50.328;7.610;2022-10-28T05:06:34;17.00;63.00
10294;DHT22;5192;50.328;7.610;2022-10-28T05:09:07;17.00;62.00
10294;DHT22;5192;50.328;7.610;2022-10-28T05:11:33;16.90;63.70
10294;DHT22;5192;50.328;7.610;2022-10-28T05:14:00;16.90;61.90
10294;DHT22;5192;50.328;7.610;2022-10-28T05:16:27;16.90;61.20
10294;DHT22;5192;50.328;7.610;2022-10-28T05:18:56;17.00;54.50
10294;DHT22;5192;50.328;7.610;2022-10-28T05:21:29;17.10;50.40
10294;DHT22;5192;50.328;7.610;2022-10-28T05:23:55;17.40;43.50
10294;DHT22;5192;50.328;7.610;2022-10-28T05:26:30;17.40;46.90
10294;DHT22;5192;50.328;7.610;2022-10-28T05:28:58;17.40;47.10
10294;DHT22;5192;50.328;7.610;2022-10-28T05:31:28;17.20;54.40
10294;DHT22;5192;50.328;7.610;2022-10-28T05:33:55;17.00;55.40
10294;DHT22;5192;50.328;7.610;2022-10-28T05:36:27;17.00;51.50
10294;DHT22;5192;50.328;7.610;2022-10-28T05:38:53;16.90;58.20
10294;DHT22;5192;50.328;7.610;2022-10-28T05:41:20;16.80;64.00
10294;DHT22;5192;50.328;7.610;2022-10-28T05:43:47;16.60;73.20
10294;DHT22;5192;50.328;7.610;2022-10-28T05:46:14;16.30;83.50
10294;DHT22;5192;50.328;7.610;2022-10-28T05:48:41;16.00;91.90
10294;DHT22;5192;50.328;7.610;2022-10-28T05:51:08;15.70;99.90
10294;DHT22;5192;50.328;7.610;2022-10-28T05:53:39;15.50;99.90
10294;DHT22;5192;50.328;7.610;2022-10-28T05:56:09;15.30;99.90
10294;DHT22;5192;50.328;7.610;2022-10-28T05:58:36;15.20;99.90
10294;DHT22;5192;50.328;7.610;2022-10-28T06:01:07;15.10;99.90
10294;DHT22;5192;50.328;7.610;2022-10-28T06:03:33;15.10;99.90
10294;DHT22;5192;50.328;7.610;2022-10-28T06:05:59;15.70;83.40
10294;DHT22;5192;50.328;7.610;2022-10-28T06:08:30;15.90;77.50
10294;DHT22;5192;50.328;7.610;2022-10-28T06:10:58;16.30;62.50
10294;DHT22;5192;50.328;7.610;2022-10-28T06:13:30;16.60;54.00
10294;DHT22;5192;50.328;7.610;2022-10-28T06:15:58;16.90;48.40
10294;DHT22;5192;50.328;7.610;2022-10-28T06:18:28;17.10;41.20
10294;DHT22;5192;50.328;7.610;2022-10-28T06:20:57;17.30;40.40
10294;DHT22;5192;50.328;7.610;2022-10-28T06:23:29;17.20;42.20
10294;DHT22;5192;50.328;7.610;2022-10-28T06:26:01;17.30;40.60
10294;DHT22;5192;50.328;7.610;2022-10-28T06:28:36;17.30;39.10
10294;DHT22;5192;50.328;7.610;2022-10-28T06:31:08;17.50;37.10
10294;DHT22;5192;50.328;7.610;2022-10-28T06:33:35;17.50;36.40
10294;DHT22;5192;50.328;7.610;2022-10-28T06:36:01;17.50;35.00
10294;DHT22;5192;50.328;7.610;2022-10-28T06:38:27;17.50;34.20
10294;DHT22;5192;50.328;7.610;2022-10-28T06:40:57;17.50;34.00
10294;DHT22;5192;50.328;7.610;2022-10-28T06:43:35;17.60;33.80
10294;DHT22;5192;50.328;7.610;2022-10-28T06:46:02;17.70;32.00
10294;DHT22;5192;50.328;7.610;2022-10-28T06:48:36;17.80;31.50
10294;DHT22;5192;50.328;7.610;2022-10-28T06:51:08;17.70;35.30
10294;DHT22;5192;50.328;7.610;2022-10-28T06:53:34;17.50;43.60
10294;DHT22;5192;50.328;7.610;2022-10-28T06:56:00;17.30;53.30
10294;DHT22;5192;50.328;7.610;2022-10-28T06:58:29;16.90;65.50
10294;DHT22;5192;50.328;7.610;2022-10-28T07:00:55;16.60;73.60
10294;DHT22;5192;50.328;7.610;2022-10-28T07:03:21;16.40;79.80
10294;DHT22;5192;50.328;7.610;2022-10-28T07:05:48;16.20;84.40
10294;DHT22;5192;50.328;7.610;2022-10-28T07:08:18;16.10;91.40
10294;DHT22;5192;50.328;7.610;2022-10-28T07:11:08;16.00;95.10
10294;DHT22;5192;50.328;7.610;2022-10-28T07:13:33;15.90;97.40
10294;DHT22;5192;50.328;7.610;2022-10-28T07:16:00;15.90;99.90
10294;DHT22;5192;50.328;7.610;2022-10-28T07:18:31;15.90;99.90
10294;DHT22;5192;50.328;7.610;2022-10-28T07:20:58;15.90;99.90
10294;DHT22;5192;50.328;7.610;2022-10-28T07:23:28;16.00;83.90
10294;DHT22;5192;50.328;7.610;2022-10-28T07:25:59;16.20;78.20
10294;DHT22;5192;50.328;7.610;2022-10-28T07:28:39;16.40;69.00
10294;DHT22;5192;50.328;7.610;2022-10-28T07:31:09;16.80;56.40
10294;DHT22;5192;50.328;7.610;2022-10-28T07:33:37;17.00;51.80
10294;DHT22;5192;50.328;7.610;2022-10-28T07:36:08;17.10;49.90
10294;DHT22;5192;50.328;7.610;2022-10-28T07:38:35;17.20;48.40
10294;DHT22;5192;50.328;7.610;2022-10-28T07:41:18;17.30;47.00
10294;DHT22;5192;50.328;7.610;2022-10-28T07:43:51;17.30;45.90
10294;DHT22;5192;50.328;7.610;2022-10-28T07:46:18;17.30;48.30
10294;DHT22;5192;50.328;7.610;2022-10-28T07:48:48;17.30;46.80
10294;DHT22;5192;50.328;7.610;2022-10-28T07:51:14;17.30;48.60
10294;DHT22;5192;50.328;7.610;2022-10-28T07:53:41;17.30;47.40
10294;DHT22;5192;50.328;7.610;2022-10-28T07:56:16;17.30;47.90
10294;DHT22;5192;50.328;7.610;2022-10-28T07:58:47;17.30;51.90
10294;DHT22;5192;50.328;7.610;2022-10-28T08:01:15;17.30;53.30
10294;DHT22;5192;50.328;7.610;2022-10-28T08:04:02;17.30;54.60
10294;DHT22;5192;50.328;7.610;2022-10-28T08:06:50;17.30;53.10
10294;DHT22;5192;50.328;7.610;2022-10-28T08:09:17;17.30;54.50
10294;DHT22;5192;50.328;7.610;2022-10-28T08:11:54;17.40;46.80
10294;DHT22;5192;50.328;7.610;2022-10-28T08:14:27;17.60;45.50
10294;DHT22;5192;50.328;7.610;2022-10-28T08:16:55;17.70;36.60
10294;DHT22;5192;50.328;7.610;2022-10-28T08:19:21;17.80;37.50
10294;DHT22;5192;50.328;7.610;2022-10-28T08:21:56;17.90;35.30
10294;DHT22;5192;50.328;7.610;2022-10-28T08:24:31;17.90;34.70
10294;DHT22;5192;50.328;7.610;2022-10-28T08:26:58;18.00;31.80
10294;DHT22;5192;50.328;7.610;2022-10-28T08:29:28;18.10;33.60
10294;DHT22;5192;50.328;7.610;2022-10-28T08:31:55;18.20;35.70
10294;DHT22;5192;50.328;7.610;2022-10-28T08:34:28;18.20;33.60
10294;DHT22;5192;50.328;7.610;2022-10-28T08:36:57;18.20;34.30
10294;DHT22;5192;50.328;7.610;2022-10-28T08:39:46;18.20;33.50
10294;DHT22;5192;50.328;7.610;2022-10-28T08:42:59;18.20;34.00
10294;DHT22;5192;50.328;7.610;2022-10-28T08:46:47;18.30;27.10
10294;DHT22;5192;50.328;7.610;2022-10-28T08:49:20;18.40;26.10
10294;DHT22;5192;50.328;7.610;2022-10-28T08:54:56;18.40;28.10
10294;DHT22;5192;50.328;7.610;2022-10-28T08:57:43;18.30;28.30
10294;DHT22;5192;50.328;7.610;2022-10-28T09:00:37;18.30;29.90
10294;DHT22;5192;50.328;7.610;2022-10-28T09:03:40;18.30;32.00
10294;DHT22;5192;50.328;7.610;2022-10-28T09:06:30;18.30;35.50
10294;DHT22;5192;50.328;7.610;2022-10-28T09:08:58;18.30;31.30
10294;DHT22;5192;50.328;7.610;2022-10-28T09:11:54;18.30;33.20
10294;DHT22;5192;50.328;7.610;2022-10-28T09:21:00;18.90;21.80
10294;DHT22;5192;50.328;7.610;2022-10-28T09:23:35;19.20;19.20
10294;DHT22;5192;50.328;7.610;2022-10-28T09:35:19;19.50;21.70
10294;DHT22;5192;50.328;7.610;2022-10-28T09:37:55;19.50;24.20
10294;DHT22;5192;50.328;7.610;2022-10-28T09:40:35;19.50;24.30
10294;DHT22;5192;50.328;7.610;2022-10-28T09:46:18;19.50;21.30
10294;DHT22;5192;50.328;7.610;2022-10-28T09:48:51;19.70;18.50
10294;DHT22;5192;50.328;7.610;2022-10-28T09:51:46;19.90;17.10
10294;DHT22;5192;50.328;7.610;2022-10-28T09:54:25;20.20;14.80
10294;DHT22;5192;50.328;7.610;2022-10-28T09:56:54;20.30;12.60
10294;DHT22;5192;50.328;7.610;2022-10-28T09:59:21;20.50;10.60
10294;DHT22;5192;50.328;7.610;2022-10-28T10:01:51;20.60;11.30
10294;DHT22;5192;50.328;7.610;2022-10-28T10:04:27;20.80;10.30
10294;DHT22;5192;50.328;7.610;2022-10-28T10:07:09;20.80;10.70
10294;DHT22;5192;50.328;7.610;2022-10-28T10:09:36;20.80;9.30
10294;DHT22;5192;50.328;7.610;2022-10-28T10:12:29;20.90;9.90
10294;DHT22;5192;50.328;7.610;2022-10-28T10:15:30;20.90;10.30
10294;DHT22;5192;50.328;7.610;2022-10-28T10:18:14;21.10;8.50
10294;DHT22;5192;50.328;7.610;2022-10-28T10:20:57;21.10;7.00
10294;DHT22;5192;50.328;7.610;2022-10-28T10:23:52;21.30;7.40
10294;DHT22;5192;50.328;7.610;2022-10-28T10:26:19;21.50;6.20
10294;DHT22;5192;50.328;7.610;2022-10-28T10:29:08;21.70;8.50
10294;DHT22;5192;50.328;7.610;2022-10-28T10:31:36;21.90;1.30
10294;DHT22;5192;50.328;7.610;2022-10-28T10:34:22;22.10;1.00
10294;DHT22;5192;50.328;7.610;2022-10-28T10:36:56;22.20;1.00
10294;DHT22;5192;50.328;7.610;2022-10-28T10:39:34;22.10;1.00
10294;DHT22;5192;50.328;7.610;2022-10-28T10:42:01;22.20;2.70
10294;DHT22;5192;50.328;7.610;2022-10-28T10:44:34;22.40;3.00
10294;DHT22;5192;50.328;7.610;2022-10-28T10:49:37;22.50;1.00
10294;DHT22;5192;50.328;7.610;2022-10-28T10:52:35;22.50;1.00
10294;DHT22;5192;50.328;7.610;2022-10-28T10:55:13;22.60;1.00
10294;DHT22;5192;50.328;7.610;2022-10-28T10:57:52;22.60;1.00
10294;DHT22;5192;50.328;7.610;2022-10-28T11:00:21;22.60;1.00
10294;DHT22;5192;50.328;7.610;2022-10-28T11:02:48;22.60;1.00
10294;DHT22;5192;50.328;7.610;2022-10-28T11:05:20;22.60;1.00
10294;DHT22;5192;50.328;7.610;2022-10-28T11:07:50;22.70;1.00
10294;DHT22;5192;50.328;7.610;2022-10-28T11:10:31;22.90;1.00
10294;DHT22;5192;50.328;7.610;2022-10-28T11:13:28;23.00;1.00
10294;DHT22;5192;50.328;7.610;2022-10-28T11:16:21;23.20;1.00
10294;DHT22;5192;50.328;7.610;2022-10-28T11:18:59;23.30;1.00
10294;DHT22;5192;50.328;7.610;2022-10-28T11:21:58;23.20;1.00
10294;DHT22;5192;50.328;7.610;2022-10-28T11:25:18;23.20;1.00
10294;DHT22;5192;50.328;7.610;2022-10-28T11:40:34;23.80;1.00
10294;DHT22;5192;50.328;7.610;2022-10-28T11:46:23;24.20;1.00
10294;DHT22;5192;50.328;7.610;2022-10-28T11:52:33;24.20;1.00
10294;DHT22;5192;50.328;7.610;2022-10-28T11:55:17;24.30;1.00
10294;DHT22;5192;50.328;7.610;2022-10-28T12:10:37;25.30;1.00
10294;DHT22;5192;50.328;7.610;2022-10-28T12:19:50;25.00;1.00
10294;DHT22;5192;50.328;7.610;2022-10-28T12:23:10;25.10;1.00
10294;DHT22;5192;50.328;7.610;2022-10-28T12:25:27;25.40;1.00
10294;DHT22;5192;50.328;7.610;2022-10-28T12:28:29;25.70;1.00
10294;DHT22;5192;50.328;7.610;2022-10-28T12:30:58;25.90;1.00
10294;DHT22;5192;50.328;7.610;2022-10-28T12:33:50;25.80;1.00
10294;DHT22;5192;50.328;7.610;2022-10-28T12:36:34;26.10;1.00
10294;DHT22;5192;50.328;7.610;2022-10-28T12:42:17;26.70;1.00
10294;DHT22;5192;50.328;7.610;2022-10-28T12:44:51;27.20;1.00
10294;DHT22;5192;50.328;7.610;2022-10-28T12:50:51;27.60;1.00
10294;DHT22;5192;50.328;7.610;2022-10-28T12:53:52;27.90;1.00
10294;DHT22;5192;50.328;7.610;2022-10-28T12:56:32;28.30;1.00
10294;DHT22;5192;50.328;7.610;2022-10-28T12:59:28;27.70;1.00
10294;DHT22;5192;50.328;7.610;2022-10-28T13:01:56;27.60;1.00
10294;DHT22;5192;50.328;7.610;2022-10-28T13:04:35;27.80;1.00
10294;DHT22;5192;50.328;7.610;2022-10-28T13:22:53;28.70;1.00
10294;DHT22;5192;50.328;7.610;2022-10-28T13:28:43;28.80;1.00
10294;DHT22;5192;50.328;7.610;2022-10-28T13:31:43;28.70;1.00
10294;DHT22;5192;50.328;7.610;2022-10-28T13:34:20;28.30;1.00
10294;DHT22;5192;50.328;7.610;2022-10-28T13:36:58;28.50;1.00
10294;DHT22;5192;50.328;7.610;2022-10-28T13:44:54;28.60;1.00
10294;DHT22;5192;50.328;7.610;2022-10-28T13:47:34;28.20;1.00
10294;DHT22;5192;50.328;7.610;2022-10-28T13:50:30;27.90;1.00
10294;DHT22;5192;50.328;7.610;2022-10-28T13:55:56;27.30;1.00
10294;DHT22;5192;50.328;7.610;2022-10-28T13:58:31;27.00;1.00
10294;DHT22;5192;50.328;7.610;2022-10-28T14:04:31;26.80;1.00
10294;DHT22;5192;50.328;7.610;2022-10-28T14:09:42;26.40;1.00
10294;DHT22;5192;50.328;7.610;2022-10-28T14:12:35;26.20;1.00
10294;DHT22;5192;50.328;7.610;2022-10-28T14:15:30;25.90;1.00
10294;DHT22;5192;50.328;7.610;2022-10-28T14:21:00;25.60;1.00
10294;DHT22;5192;50.328;7.610;2022-10-28T14:26:08;25.60;1.00
10294;DHT22;5192;50.328;7.610;2022-10-28T14:36:38;25.20;1.00
10294;DHT22;5192;50.328;7.610;2022-10-28T14:48:57;24.40;1.00
10294;DHT22;5192;50.328;7.610;2022-10-28T14:51:51;24.20;1.00
10294;DHT22;5192;50.328;7.610;2022-10-28T14:57:30;23.90;1.00
10294;DHT22;5192;50.328;7.610;2022-10-28T15:00:02;23.80;1.00
10294;DHT22;5192;50.328;7.610;2022-10-28T15:02:30;23.60;1.00
10294;DHT22;5192;50.328;7.610;2022-10-28T15:05:18;23.40;1.00
10294;DHT22;5192;50.328;7.610;2022-10-28T15:07:53;23.30;1.00
10294;DHT22;5192;50.328;7.610;2022-10-28T15:10:29;23.20;1.00
10294;DHT22;5192;50.328;7.610;2022-10-28T15:12:57;23.10;1.00
10294;DHT22;5192;50.328;7.610;2022-10-28T15:18:28;23.00;1.00
10294;DHT22;5192;50.328;7.610;2022-10-28T15:21:10;22.80;1.00
10294;DHT22;5192;50.328;7.610;2022-10-28T15:23:38;22.70;1.00
10294;DHT22;5192;50.328;7.610;2022-10-28T15:26:13;22.70;1.00
10294;DHT22;5192;50.328;7.610;2022-10-28T15:28:42;22.60;1.00
10294;DHT22;5192;50.328;7.610;2022-10-28T15:31:08;22.60;1.00
10294;DHT22;5192;50.328;7.610;2022-10-28T15:33:39;22.40;1.00
10294;DHT22;5192;50.328;7.610;2022-10-28T15:36:20;22.30;1.00
10294;DHT22;5192;50.328;7.610;2022-10-28T15:44:38;22.00;1.00
10294;DHT22;5192;50.328;7.610;2022-10-28T15:47:33;21.90;1.00
10294;DHT22;5192;50.328;7.610;2022-10-28T15:50:22;21.80;1.00
10294;DHT22;5192;50.328;7.610;2022-10-28T15:53:20;21.70;1.00
10294;DHT22;5192;50.328;7.610;2022-10-28T15:56:19;21.60;1.00
10294;DHT22;5192;50.328;7.610;2022-10-28T15:59:02;21.60;1.00
10294;DHT22;5192;50.328;7.610;2022-10-28T16:01:48;21.60;1.00
10294;DHT22;5192;50.328;7.610;2022-10-28T16:07:18;21.50;1.00
10294;DHT22;5192;50.328;7.610;2022-10-28T16:09:57;21.40;1.00
10294;DHT22;5192;50.328;7.610;2022-10-28T16:12:34;21.30;1.00
10294;DHT22;5192;50.328;7.610;2022-10-28T16:15:01;21.20;1.00
10294;DHT22;5192;50.328;7.610;2022-10-28T16:17:32;21.10;2.60
10294;DHT22;5192;50.328;7.610;2022-10-28T16:20:12;20.90;7.60
10294;DHT22;5192;50.328;7.610;2022-10-28T16:22:41;20.70;12.90
10294;DHT22;5192;50.328;7.610;2022-10-28T16:25:29;20.60;17.50
10294;DHT22;5192;50.328;7.610;2022-10-28T16:27:56;20.50;21.10
10294;DHT22;5192;50.328;7.610;2022-10-28T16:30:30;20.30;21.10
10294;DHT22;5192;50.328;7.610;2022-10-28T16:32:57;20.10;20.80
10294;DHT22;5192;50.328;7.610;2022-10-28T16:35:31;20.00;21.10
10294;DHT22;5192;50.328;7.610;2022-10-28T16:37:58;20.00;20.70
10294;DHT22;5192;50.328;7.610;2022-10-28T16:40:30;19.80;23.10
10294;DHT22;5192;50.328;7.610;2022-10-28T16:42:59;19.80;22.00
10294;DHT22;5192;50.328;7.610;2022-10-28T16:45:28;19.80;23.10
10294;DHT22;5192;50.328;7.610;2022-10-28T16:47:55;19.80;21.50
10294;DHT22;5192;50.328;7.610;2022-10-28T16:50:22;19.80;20.00
10294;DHT22;5192;50.328;7.610;2022-10-28T16:52:51;19.80;19.90
10294;DHT22;5192;50.328;7.610;2022-10-28T16:55:21;19.80;20.10
10294;DHT22;5192;50.328;7.610;2022-10-28T16:57:50;19.80;20.20
10294;DHT22;5192;50.328;7.610;2022-10-28T17:00:17;19.80;21.50
10294;DHT22;5192;50.328;7.610;2022-10-28T17:02:52;19.80;20.50
10294;DHT22;5192;50.328;7.610;2022-10-28T17:05:22;19.80;22.00
10294;DHT22;5192;50.328;7.610;2022-10-28T17:07:51;19.70;21.00
10294;DHT22;5192;50.328;7.610;2022-10-28T17:10:23;19.80;19.40
10294;DHT22;5192;50.328;7.610;2022-10-28T17:12:54;19.80;19.20
10294;DHT22;5192;50.328;7.610;2022-10-28T17:15:22;19.80;18.20
10294;DHT22;5192;50.328;7.610;2022-10-28T17:17:54;19.80;18.60
10294;DHT22;5192;50.328;7.610;2022-10-28T17:20:20;19.80;17.00
10294;DHT22;5192;50.328;7.610;2022-10-28T17:22:48;19.80;16.60
10294;DHT22;5192;50.328;7.610;2022-10-28T17:25:17;19.80;16.50
10294;DHT22;5192;50.328;7.610;2022-10-28T17:27:50;19.80;16.00
10294;DHT22;5192;50.328;7.610;2022-10-28T17:30:17;19.80;18.00
10294;DHT22;5192;50.328;7.610;2022-10-28T17:32:59;19.80;16.00
10294;DHT22;5192;50.328;7.610;2022-10-28T17:35:32;19.80;18.00
10294;DHT22;5192;50.328;7.610;2022-10-28T17:37:57;19.90;15.50
10294;DHT22;5192;50.328;7.610;2022-10-28T17:40:32;20.00;14.40
10294;DHT22;5192;50.328;7.610;2022-10-28T17:42:58;20.10;11.90
10294;DHT22;5192;50.328;7.610;2022-10-28T17:45:30;20.20;12.40
10294;DHT22;5192;50.328;7.610;2022-10-28T17:47:59;20.20;11.00
10294;DHT22;5192;50.328;7.610;2022-10-28T17:50:30;20.30;10.20
10294;DHT22;5192;50.328;7.610;2022-10-28T17:52:58;20.40;9.80
10294;DHT22;5192;50.328;7.610;2022-10-28T17:55:33;20.40;8.40
10294;DHT22;5192;50.328;7.610;2022-10-28T17:58:00;20.60;7.30
10294;DHT22;5192;50.328;7.610;2022-10-28T18:00:31;20.60;6.70
10294;DHT22;5192;50.328;7.610;2022-10-28T18:03:01;20.60;7.00
10294;DHT22;5192;50.328;7.610;2022-10-28T18:05:36;20.80;4.90
10294;DHT22;5192;50.328;7.610;2022-10-28T18:08:12;20.80;4.90
10294;DHT22;5192;50.328;7.610;2022-10-28T18:10:50;20.80;4.60
10294;DHT22;5192;50.328;7.610;2022-10-28T18:13:17;20.80;4.10
10294;DHT22;5192;50.328;7.610;2022-10-28T18:15:52;20.80;3.90
10294;DHT22;5192;50.328;7.610;2022-10-28T18:18:19;20.80;4.30
10294;DHT22;5192;50.328;7.610;2022-10-28T18:20:53;20.80;4.50
10294;DHT22;5192;50.328;7.610;2022-10-28T18:23:22;20.70;5.40
10294;DHT22;5192;50.328;7.610;2022-10-28T18:26:15;20.70;5.50
10294;DHT22;5192;50.328;7.610;2022-10-28T18:28:43;20.60;5.40
10294;DHT22;5192;50.328;7.610;2022-10-28T18:31:20;20.60;5.80
10294;DHT22;5192;50.328;7.610;2022-10-28T18:33:50;20.60;5.40
10294;DHT22;5192;50.328;7.610;2022-10-28T18:36:35;20.60;6.80
10294;DHT22;5192;50.328;7.610;2022-10-28T18:39:12;20.60;5.10
10294;DHT22;5192;50.328;7.610;2022-10-28T18:41:39;20.60;6.00
10294;DHT22;5192;50.328;7.610;2022-10-28T18:44:14;20.70;5.10
10294;DHT22;5192;50.328;7.610;2022-10-28T18:46:49;20.70;5.10
10294;DHT22;5192;50.328;7.610;2022-10-28T18:49:18;20.60;4.80
10294;DHT22;5192;50.328;7.610;2022-10-28T18:51:45;20.70;3.80
10294;DHT22;5192;50.328;7.610;2022-10-28T18:54:12;20.60;5.00
10294;DHT22;5192;50.328;7.610;2022-10-28T18:56:38;20.50;10.00
10294;DHT22;5192;50.328;7.610;2022-10-28T18:59:11;20.30;12.40
10294;DHT22;5192;50.328;7.610;2022-10-28T19:01:38;20.10;15.90
10294;DHT22;5192;50.328;7.610;2022-10-28T19:04:12;19.90;21.30
10294;DHT22;5192;50.328;7.610;2022-10-28T19:06:41;19.60;28.60
10294;DHT22;5192;50.328;7.610;2022-10-28T19:09:10;19.30;32.40
10294;DHT22;5192;50.328;7.610;2022-10-28T19:11:37;19.00;38.90
10294;DHT22;5192;50.328;7.610;2022-10-28T19:14:09;18.80;43.70
10294;DHT22;5192;50.328;7.610;2022-10-28T19:16:36;18.70;42.90
10294;DHT22;5192;50.328;7.610;2022-10-28T19:19:17;18.50;47.10
10294;DHT22;5192;50.328;7.610;2022-10-28T19:21:55;18.40;51.10
10294;DHT22;5192;50.328;7.610;2022-10-28T19:24:28;18.30;52.90
10294;DHT22;5192;50.328;7.610;2022-10-28T19:26:55;18.10;56.60
10294;DHT22;5192;50.328;7.610;2022-10-28T19:29:23;18.00;61.80
10294;DHT22;5192;50.328;7.610;2022-10-28T19:31:48;18.00;61.30
10294;DHT22;5192;50.328;7.610;2022-10-28T19:34:15;17.90;63.20
10294;DHT22;5192;50.328;7.610;2022-10-28T19:36:42;17.80;56.30
10294;DHT22;5192;50.328;7.610;2022-10-28T19:39:10;17.90;51.40
10294;DHT22;5192;50.328;7.610;2022-10-28T19:41:37;18.10;43.10
10294;DHT22;5192;50.328;7.610;2022-10-28T19:44:09;18.20;36.80
10294;DHT22;5192;50.328;7.610;2022-10-28T19:46:36;18.40;33.70
10294;DHT22;5192;50.328;7.610;2022-10-28T19:49:08;18.50;31.60